createdAt,value
2019-05-12T00:01:18.688Z,12.10
2019-05-12T00:03:48.445Z,12.00
2019-05-12T00:06:17.790Z,12.00
2019-05-12T00:08:48.705Z,12.00
2019-05-12T00:11:18.043Z,11.90
2019-05-12T00:13:47.833Z,11.90
2019-05-12T00:16:17.681Z,11.90
2019-05-12T00:18:48.316Z,11.90
2019-05-12T00:21:17.714Z,11.80
2019-05-12T00:24:04.649Z,11.80
2019-05-12T00:26:33.408Z,11.80
2019-05-12T00:29:02.179Z,11.80
2019-05-12T00:31:31.021Z,11.80
2019-05-12T00:33:59.800Z,11.80
2019-05-12T00:36:29.214Z,11.80
2019-05-12T00:38:58.198Z,11.70
2019-05-12T00:41:28.368Z,11.70
2019-05-12T00:43:58.241Z,11.70
2019-05-12T00:46:27.852Z,11.60
2019-05-12T00:48:58.493Z,11.60
2019-05-12T00:51:28.818Z,11.60
2019-05-12T00:53:58.101Z,11.60
2019-05-12T00:56:28.400Z,11.50
2019-05-12T00:58:58.001Z,11.50
2019-05-12T01:01:28.529Z,11.50
2019-05-12T01:03:58.027Z,11.50
2019-05-12T01:06:28.292Z,11.50
2019-05-12T01:08:57.923Z,11.50
2019-05-12T01:11:28.550Z,11.50
2019-05-12T01:13:58.306Z,11.50
2019-05-12T01:16:28.823Z,11.40
2019-05-12T01:18:58.618Z,11.40
2019-05-12T01:21:28.713Z,11.40
2019-05-12T01:24:03.531Z,11.40
2019-05-12T01:26:31.161Z,11.40
2019-05-12T01:28:59.928Z,11.40
2019-05-12T01:31:31.855Z,11.40
2019-05-12T01:34:00.594Z,11.40
2019-05-12T01:36:29.349Z,11.40
2019-05-12T01:39:01.579Z,11.40
2019-05-12T01:41:28.805Z,11.40
2019-05-12T01:43:58.468Z,11.40
2019-05-12T01:46:28.847Z,11.30
2019-05-12T01:48:59.144Z,11.30
2019-05-12T01:51:28.495Z,11.30
2019-05-12T01:54:10.993Z,11.30
2019-05-12T01:56:28.773Z,11.30
2019-05-12T01:58:57.920Z,11.30
2019-05-12T02:01:28.089Z,11.30
2019-05-12T02:03:58.588Z,11.30
2019-05-12T02:06:27.952Z,11.30
2019-05-12T02:08:59.593Z,11.40
2019-05-12T02:11:34.463Z,11.40
2019-05-12T02:14:04.683Z,11.40
2019-05-12T02:16:33.641Z,11.40
2019-05-12T02:19:02.458Z,11.40
2019-05-12T02:21:31.276Z,11.50
2019-05-12T02:24:00.042Z,11.50
2019-05-12T02:26:29.130Z,11.50
2019-05-12T02:28:58.600Z,11.50
2019-05-12T02:31:29.372Z,11.50
2019-05-12T02:33:58.297Z,11.50
2019-05-12T02:36:27.201Z,11.50
2019-05-12T02:38:56.267Z,11.50
2019-05-12T02:41:25.952Z,11.50
2019-05-12T02:43:55.512Z,11.50
2019-05-12T02:46:25.492Z,11.40
2019-05-12T02:48:54.845Z,11.40
2019-05-12T02:51:24.791Z,11.40
2019-05-12T02:53:55.359Z,11.40
2019-05-12T02:56:26.037Z,11.40
2019-05-12T02:58:55.244Z,11.40
2019-05-12T03:01:25.681Z,11.40
2019-05-12T03:03:58.170Z,11.30
2019-05-12T03:06:29.327Z,11.30
2019-05-12T03:09:04.519Z,11.30
2019-05-12T03:11:35.452Z,11.30
2019-05-12T03:14:04.102Z,11.30
2019-05-12T03:16:34.906Z,11.30
2019-05-12T03:19:04.909Z,11.30
2019-05-12T03:21:35.231Z,11.30
2019-05-12T03:24:06.273Z,11.20
2019-05-12T03:26:35.604Z,11.20
2019-05-12T03:29:05.708Z,11.10
2019-05-12T03:31:39.705Z,11.10
2019-05-12T03:34:09.330Z,11.10
2019-05-12T03:36:42.147Z,11.10
2019-05-12T03:39:08.198Z,11.00
2019-05-12T03:41:37.079Z,11.00
2019-05-12T03:44:05.916Z,11.00
2019-05-12T03:46:35.372Z,10.90
2019-05-12T03:49:05.522Z,10.90
2019-05-12T03:51:35.095Z,10.90
2019-05-12T03:54:05.026Z,10.90
2019-05-12T03:56:34.776Z,10.80
2019-05-12T03:59:05.125Z,10.80
2019-05-12T04:01:36.217Z,10.70
2019-05-12T04:04:05.492Z,10.70
2019-05-12T04:06:35.025Z,10.70
2019-05-12T04:09:08.674Z,10.70
2019-05-12T04:11:37.657Z,10.60
2019-05-12T04:14:06.698Z,10.60
2019-05-12T04:16:36.505Z,10.60
2019-05-12T04:19:05.951Z,10.60
2019-05-12T04:21:35.525Z,10.50
2019-05-12T04:24:05.886Z,10.50
2019-05-12T04:26:36.522Z,10.50
2019-05-12T04:29:05.919Z,10.40
2019-05-12T04:31:35.871Z,10.40
2019-05-12T04:34:05.460Z,10.40
2019-05-12T04:36:35.532Z,10.40
2019-05-12T04:39:07.292Z,10.40
2019-05-12T04:41:36.831Z,10.40
2019-05-12T04:44:06.155Z,10.30
2019-05-12T04:46:35.484Z,10.30
2019-05-12T04:49:05.201Z,10.30
2019-05-12T04:51:35.109Z,10.30
2019-05-12T04:54:05.708Z,10.30
2019-05-12T04:56:36.016Z,10.30
2019-05-12T04:59:05.396Z,10.20
2019-05-12T05:01:35.513Z,10.20
2019-05-12T05:04:05.707Z,10.20
2019-05-12T05:06:34.983Z,10.20
2019-05-12T05:09:05.646Z,10.20
2019-05-12T05:11:34.696Z,10.20
2019-05-12T05:14:04.371Z,10.30
2019-05-12T05:16:34.683Z,10.30
2019-05-12T05:19:03.861Z,10.30
2019-05-12T05:21:34.488Z,10.30
2019-05-12T05:24:03.881Z,10.40
2019-05-12T05:26:37.005Z,10.40
2019-05-12T05:29:04.346Z,10.40
2019-05-12T05:31:33.844Z,10.50
2019-05-12T05:34:04.839Z,10.50
2019-05-12T05:36:34.529Z,10.60
2019-05-12T05:39:06.043Z,10.60
2019-05-12T05:41:44.839Z,10.60
2019-05-12T05:44:07.769Z,10.70
2019-05-12T05:46:39.020Z,10.70
2019-05-12T05:49:07.092Z,10.70
2019-05-12T05:51:39.483Z,10.80
2019-05-12T05:54:06.481Z,10.80
2019-05-12T05:56:42.393Z,10.80
2019-05-12T05:59:05.768Z,10.80
2019-05-12T06:01:34.952Z,10.90
2019-05-12T06:04:08.369Z,10.90
2019-05-12T06:06:34.677Z,11.00
2019-05-12T06:09:06.202Z,11.10
2019-05-12T06:11:35.132Z,11.10
2019-05-12T06:14:11.325Z,11.20
2019-05-12T06:16:35.648Z,11.30
2019-05-12T06:19:04.608Z,11.30
2019-05-12T06:21:36.811Z,11.40
2019-05-12T06:24:08.583Z,11.50
2019-05-12T06:26:35.828Z,11.60
2019-05-12T06:29:05.018Z,11.60
2019-05-12T06:31:33.795Z,11.80
2019-05-12T06:34:06.283Z,11.90
2019-05-12T06:36:33.995Z,12.00
2019-05-12T06:39:04.403Z,12.10
2019-05-12T06:41:33.835Z,12.20
2019-05-12T06:44:03.706Z,12.30
2019-05-12T06:46:34.297Z,12.40
2019-05-12T06:49:09.907Z,12.50
2019-05-12T06:51:35.452Z,12.50
2019-05-12T06:54:10.387Z,12.60
2019-05-12T06:56:34.819Z,12.70
2019-05-12T06:59:09.886Z,12.80
2019-05-12T07:01:34.315Z,13.00
2019-05-12T07:04:06.598Z,13.00
2019-05-12T07:06:35.948Z,13.20
2019-05-12T07:09:10.011Z,13.30
2019-05-12T07:11:44.831Z,13.40
2019-05-12T07:14:19.065Z,13.50
2019-05-12T07:16:39.692Z,13.60
2019-05-12T07:19:17.458Z,13.60
2019-05-12T07:21:39.003Z,13.60
2019-05-12T07:24:11.096Z,13.70
2019-05-12T07:26:38.390Z,13.80
2019-05-12T07:29:07.193Z,13.80
2019-05-12T07:31:36.710Z,13.90
2019-05-12T07:34:07.836Z,14.00
2019-05-12T07:36:36.964Z,14.10
2019-05-12T07:39:08.563Z,14.10
2019-05-12T07:41:42.552Z,14.20
2019-05-12T07:44:10.151Z,14.20
2019-05-12T07:46:39.810Z,14.30
2019-05-12T07:49:09.432Z,14.30
2019-05-12T07:51:40.439Z,14.30
2019-05-12T07:54:08.797Z,14.30
2019-05-12T07:56:40.694Z,14.30
2019-05-12T07:59:08.127Z,14.30
2019-05-12T08:01:45.277Z,14.30
2019-05-12T08:04:07.463Z,14.30
2019-05-12T08:06:41.614Z,14.40
2019-05-12T08:09:07.658Z,14.50
2019-05-12T08:11:38.669Z,14.50
2019-05-12T08:14:07.136Z,14.60
2019-05-12T08:16:37.014Z,14.70
2019-05-12T08:19:08.420Z,14.70
2019-05-12T08:21:43.798Z,14.70
2019-05-12T08:24:07.207Z,14.70
2019-05-12T08:26:36.038Z,14.70
2019-05-12T08:29:04.870Z,14.70
2019-05-12T08:31:40.073Z,14.80
2019-05-12T08:34:04.442Z,14.80
2019-05-12T08:36:33.557Z,14.90
2019-05-12T08:39:11.891Z,14.90
2019-05-12T08:41:37.506Z,15.10
2019-05-12T08:44:06.391Z,15.10
2019-05-12T08:46:35.467Z,15.20
2019-05-12T08:49:05.441Z,15.30
2019-05-12T08:51:34.756Z,15.40
2019-05-12T08:54:07.820Z,15.40
2019-05-12T08:56:34.161Z,15.50
2019-05-12T08:59:04.308Z,15.60
2019-05-12T09:01:34.322Z,15.80
2019-05-12T09:04:06.680Z,15.90
2019-05-12T09:06:34.496Z,16.10
2019-05-12T09:09:05.922Z,16.30
2019-05-12T09:11:34.955Z,16.40
2019-05-12T09:14:05.830Z,16.60
2019-05-12T09:16:35.188Z,16.70
2019-05-12T09:19:04.910Z,16.80
2019-05-12T09:21:36.967Z,16.80
2019-05-12T09:24:04.652Z,16.80
2019-05-12T09:26:34.408Z,16.90
2019-05-12T09:29:03.736Z,16.80
2019-05-12T09:31:33.562Z,16.80
2019-05-12T09:34:11.061Z,16.80
2019-05-12T09:36:33.806Z,16.80
2019-05-12T09:39:05.831Z,16.80
2019-05-12T09:41:42.327Z,16.80
2019-05-12T09:44:05.669Z,16.70
2019-05-12T09:46:37.569Z,16.70
2019-05-12T09:49:05.046Z,16.60
2019-05-12T09:51:41.157Z,16.60
2019-05-12T09:54:05.253Z,16.50
2019-05-12T09:56:34.327Z,16.50
2019-05-12T09:59:17.450Z,16.50
2019-05-12T10:01:35.289Z,16.50
2019-05-12T10:04:04.562Z,16.50
2019-05-12T10:06:34.032Z,16.60
2019-05-12T10:09:08.885Z,16.60
2019-05-12T10:11:35.549Z,16.70
2019-05-12T10:14:06.481Z,16.70
2019-05-12T10:16:39.499Z,16.70
2019-05-12T10:19:06.112Z,16.70
2019-05-12T10:21:44.110Z,16.70
2019-05-12T10:24:13.287Z,16.80
2019-05-12T10:26:49.219Z,16.80
2019-05-12T10:29:17.586Z,16.80
2019-05-12T10:31:44.505Z,16.70
2019-05-12T10:34:19.736Z,16.80
2019-05-12T10:36:49.334Z,16.80
2019-05-12T10:39:18.772Z,16.90
2019-05-12T10:41:47.957Z,17.10
2019-05-12T10:44:16.940Z,17.20
2019-05-12T10:46:47.490Z,17.30
2019-05-12T10:49:16.453Z,17.40
2019-05-12T10:51:47.541Z,17.50
2019-05-12T10:54:15.891Z,17.50
2019-05-12T10:56:44.896Z,17.60
2019-05-12T10:59:27.000Z,17.60
2019-05-12T11:01:48.701Z,17.60
2019-05-12T11:04:14.992Z,17.70
2019-05-12T11:06:48.270Z,17.70
2019-05-12T11:09:14.352Z,17.80
2019-05-12T11:11:46.775Z,17.90
2019-05-12T11:14:14.249Z,18.00
2019-05-12T11:16:44.623Z,17.90
2019-05-12T11:19:13.794Z,17.90
2019-05-12T11:21:44.322Z,17.80
2019-05-12T11:24:13.816Z,17.70
2019-05-12T11:26:43.357Z,17.60
2019-05-12T11:29:14.157Z,17.50
2019-05-12T11:31:44.159Z,17.50
2019-05-12T11:34:15.664Z,17.50
2019-05-12T11:36:44.418Z,17.60
2019-05-12T11:39:14.214Z,17.70
2019-05-12T11:41:44.321Z,17.80
2019-05-12T11:44:13.391Z,17.90
2019-05-12T11:46:44.023Z,18.10
2019-05-12T11:49:13.844Z,18.20
2019-05-12T11:51:42.850Z,18.30
2019-05-12T11:54:13.680Z,18.30
2019-05-12T11:56:46.627Z,18.40
2019-05-12T11:59:13.846Z,18.40
2019-05-12T12:01:47.438Z,18.50
2019-05-12T12:04:14.395Z,18.60
2019-05-12T12:06:43.936Z,18.70
2019-05-12T12:09:15.242Z,18.80
2019-05-12T12:11:43.535Z,18.90
2019-05-12T12:14:14.309Z,19.00
2019-05-12T12:16:49.999Z,19.20
2019-05-12T12:19:13.512Z,19.30
2019-05-12T12:21:46.143Z,19.40
2019-05-12T12:24:13.277Z,19.40
2019-05-12T12:26:44.499Z,19.40
2019-05-12T12:29:13.643Z,19.50
2019-05-12T12:31:49.936Z,19.50
2019-05-12T12:34:23.965Z,19.50
2019-05-12T12:36:49.528Z,19.60
2019-05-12T12:39:18.380Z,19.70
2019-05-12T12:41:58.389Z,19.70
2019-05-12T12:44:17.749Z,19.80
2019-05-12T12:46:51.224Z,19.80
2019-05-12T12:49:18.710Z,19.80
2019-05-12T12:51:47.492Z,19.80
2019-05-12T12:54:16.337Z,19.90
2019-05-12T12:56:46.720Z,19.90
2019-05-12T12:59:15.741Z,20.00
2019-05-12T13:01:44.554Z,20.10
2019-05-12T13:04:34.071Z,20.10
2019-05-12T13:07:04.680Z,20.10
2019-05-12T13:09:33.745Z,20.10
2019-05-12T13:12:06.076Z,20.20
2019-05-12T13:14:38.466Z,20.20
2019-05-12T13:17:07.504Z,20.30
2019-05-12T13:19:36.256Z,20.30
2019-05-12T13:22:09.030Z,20.30
2019-05-12T13:24:35.660Z,20.40
2019-05-12T13:27:27.149Z,20.50
2019-05-12T13:29:54.244Z,20.50
2019-05-12T13:32:31.839Z,20.60
2019-05-12T13:34:53.667Z,20.60
2019-05-12T13:37:23.211Z,20.50
2019-05-12T13:39:56.991Z,20.50
2019-05-12T13:42:24.142Z,20.50
2019-05-12T13:44:53.180Z,20.50
2019-05-12T13:47:21.962Z,20.60
2019-05-12T13:49:50.744Z,20.60
2019-05-12T13:52:20.265Z,20.60
2019-05-12T13:54:50.000Z,20.70
2019-05-12T13:57:18.771Z,20.80
2019-05-12T13:59:47.606Z,20.90
2019-05-12T14:02:22.255Z,21.00
2019-05-12T14:04:46.896Z,21.00
2019-05-12T14:07:19.945Z,21.10
2019-05-12T14:09:46.220Z,21.10
2019-05-12T14:12:15.085Z,21.10
2019-05-12T14:14:49.272Z,21.10
2019-05-12T14:17:18.036Z,21.10
2019-05-12T14:19:46.860Z,21.00
2019-05-12T14:22:21.203Z,21.00
2019-05-12T14:24:46.973Z,21.00
2019-05-12T14:27:19.253Z,21.00
2019-05-12T14:29:46.638Z,21.00
2019-05-12T14:32:17.352Z,21.00
2019-05-12T14:34:51.100Z,21.00
2019-05-12T14:37:17.870Z,21.00
2019-05-12T14:39:50.338Z,21.10
2019-05-12T14:42:17.280Z,21.20
2019-05-12T14:44:49.646Z,21.30
2019-05-12T14:47:19.305Z,21.50
2019-05-12T14:49:47.310Z,21.60
2019-05-12T14:52:16.196Z,21.80
2019-05-12T14:54:45.037Z,21.80
2019-05-12T14:57:13.976Z,21.80
2019-05-12T14:59:42.792Z,21.80
2019-05-12T15:02:13.467Z,21.70
2019-05-12T15:04:43.572Z,21.70
2019-05-12T15:07:12.628Z,21.80
2019-05-12T15:09:41.414Z,21.80
2019-05-12T15:12:10.197Z,21.80
2019-05-12T15:14:39.041Z,21.90
2019-05-12T15:17:07.856Z,22.00
2019-05-12T15:19:36.757Z,22.00
2019-05-12T15:22:07.608Z,22.10
2019-05-12T15:24:36.402Z,22.20
2019-05-12T15:27:05.311Z,22.30
2019-05-12T15:29:43.354Z,22.40
2019-05-12T15:32:12.200Z,22.60
2019-05-12T15:34:41.050Z,22.60
2019-05-12T15:37:09.963Z,22.70
2019-05-12T15:39:38.742Z,22.80
2019-05-12T15:42:07.604Z,22.80
2019-05-12T15:44:37.082Z,22.40
2019-05-12T15:47:06.127Z,22.20
2019-05-12T15:49:35.024Z,21.90
2019-05-12T15:52:03.937Z,21.90
2019-05-12T15:54:35.821Z,22.00
2019-05-12T15:57:04.138Z,22.20
2019-05-12T15:59:34.500Z,22.40
2019-05-12T16:02:12.279Z,22.50
2019-05-12T16:04:42.495Z,22.70
2019-05-12T16:07:04.735Z,22.80
2019-05-12T16:09:34.446Z,22.90
2019-05-12T16:12:18.776Z,23.00
2019-05-12T16:14:41.253Z,23.00
2019-05-12T16:17:10.366Z,23.00
2019-05-12T16:19:39.124Z,22.90
2019-05-12T16:22:08.032Z,22.80
2019-05-12T16:24:43.319Z,22.80
2019-05-12T16:27:10.249Z,22.90
2019-05-12T16:29:45.549Z,23.00
2019-05-12T16:32:23.846Z,23.20
2019-05-12T16:34:47.257Z,23.30
2019-05-12T16:37:14.140Z,23.60
2019-05-12T16:39:47.175Z,23.80
2019-05-12T16:42:14.148Z,24.10
2019-05-12T16:44:44.054Z,24.10
2019-05-12T16:47:18.342Z,24.00
2019-05-12T16:49:44.572Z,23.70
2019-05-12T16:52:13.986Z,23.40
2019-05-12T16:54:43.907Z,23.00
2019-05-12T16:57:17.912Z,22.60
2019-05-12T16:59:44.332Z,22.10
2019-05-12T17:02:13.825Z,21.70
2019-05-12T17:04:43.204Z,21.40
2019-05-12T17:07:18.847Z,21.00
2019-05-12T17:09:43.825Z,20.70
2019-05-12T17:12:14.685Z,20.40
2019-05-12T17:14:53.335Z,20.20
2019-05-12T17:17:28.383Z,19.90
2019-05-12T17:20:08.211Z,19.60
2019-05-12T17:30:34.434Z,18.80
2019-05-12T17:53:35.905Z,17.90
2019-05-12T18:09:20.999Z,17.40
2019-05-12T18:11:56.087Z,17.30
2019-05-12T18:14:30.282Z,17.20
2019-05-12T18:21:54.008Z,17.00
2019-05-12T18:25:32.260Z,16.90
2019-05-12T18:29:31.364Z,16.80
2019-05-12T18:31:33.431Z,16.70
2019-05-12T18:34:04.792Z,16.60
2019-05-12T18:36:34.151Z,16.60
2019-05-12T18:39:59.127Z,16.50
2019-05-12T18:42:28.062Z,16.50
2019-05-12T18:45:02.419Z,16.40
2019-05-12T18:47:32.051Z,16.30
2019-05-12T18:49:58.296Z,16.30
2019-05-12T18:52:29.468Z,16.20
2019-05-12T18:54:57.632Z,16.20
2019-05-12T18:57:26.548Z,16.10
2019-05-12T19:00:03.450Z,16.10
2019-05-12T19:02:28.465Z,16.00
2019-05-12T19:04:56.539Z,16.00
2019-05-12T19:07:38.632Z,15.90
2019-05-12T19:09:55.900Z,15.90
2019-05-12T19:12:32.279Z,15.80
2019-05-12T19:14:55.426Z,15.70
2019-05-12T19:17:24.317Z,15.70
2019-05-12T19:19:59.630Z,15.60
2019-05-12T19:22:24.362Z,15.50
2019-05-12T19:24:59.867Z,15.50
2019-05-12T19:27:26.437Z,15.50
2019-05-12T19:29:55.174Z,15.40
2019-05-12T19:32:28.311Z,15.40
2019-05-12T19:35:00.582Z,15.40
2019-05-12T19:37:30.045Z,15.30
2019-05-12T19:40:06.102Z,15.30
2019-05-12T19:42:29.685Z,15.30
2019-05-12T19:45:00.090Z,15.20
2019-05-12T19:47:33.807Z,15.10
2019-05-12T19:50:05.777Z,15.10
2019-05-12T19:52:30.208Z,15.00
2019-05-12T19:54:59.135Z,15.00
2019-05-12T19:57:27.992Z,15.00
2019-05-12T19:59:56.922Z,14.90
2019-05-12T20:02:25.875Z,14.90
2019-05-12T20:04:56.693Z,14.80
2019-05-12T20:07:25.686Z,14.80
2019-05-12T20:10:00.176Z,14.80
2019-05-12T20:12:25.151Z,14.70
2019-05-12T20:14:56.755Z,14.60
2019-05-12T20:17:27.564Z,14.60
2019-05-12T20:19:56.364Z,14.60
2019-05-12T20:22:25.260Z,14.50
2019-05-12T20:24:54.041Z,14.40
2019-05-12T20:27:24.672Z,14.40
2019-05-12T20:29:54.061Z,14.40
2019-05-12T20:32:24.091Z,14.30
2019-05-12T20:34:55.367Z,14.30
2019-05-12T20:37:23.622Z,14.20
2019-05-12T20:40:00.293Z,14.20
2019-05-12T20:42:24.783Z,14.20
2019-05-12T20:44:58.014Z,14.20
2019-05-12T20:47:24.225Z,14.10
2019-05-12T20:49:53.141Z,14.10
2019-05-12T20:52:23.783Z,14.00
2019-05-12T20:54:59.722Z,14.00
2019-05-12T20:57:26.504Z,13.90
2019-05-12T20:59:58.161Z,13.90
2019-05-12T21:02:26.069Z,13.80
2019-05-12T21:05:00.928Z,13.80
2019-05-12T21:07:27.115Z,13.80
2019-05-12T21:09:56.082Z,13.70
2019-05-12T21:12:24.940Z,13.70
2019-05-12T21:15:00.681Z,13.60
2019-05-12T21:17:39.029Z,13.60
2019-05-12T21:19:59.244Z,13.60
2019-05-12T21:22:25.680Z,13.50
2019-05-12T21:24:54.577Z,13.50
2019-05-12T21:27:23.401Z,13.40
2019-05-12T21:29:54.142Z,13.40
2019-05-12T21:32:24.050Z,13.40
2019-05-12T21:34:57.846Z,13.30
2019-05-12T21:37:25.445Z,13.30
2019-05-12T21:39:54.264Z,13.20
2019-05-12T21:42:25.095Z,13.20
2019-05-12T21:44:53.526Z,13.20
2019-05-12T21:47:24.305Z,13.20
2019-05-12T21:49:57.667Z,13.10
2019-05-12T21:52:24.095Z,13.10
2019-05-12T21:54:55.798Z,13.10
2019-05-12T21:57:30.616Z,13.00
2019-05-12T21:59:58.116Z,13.00
2019-05-12T22:02:30.732Z,13.00
2019-05-12T22:04:57.660Z,12.90
2019-05-12T22:07:29.517Z,12.90
2019-05-12T22:09:57.126Z,12.90
2019-05-12T22:12:28.599Z,12.80
2019-05-12T22:14:56.847Z,12.80
2019-05-12T22:17:25.816Z,12.80
2019-05-12T22:19:54.703Z,12.70
2019-05-12T22:22:29.965Z,12.70
2019-05-12T22:24:57.121Z,12.60
2019-05-12T22:27:27.260Z,13.10
2019-05-12T22:29:56.361Z,12.60
2019-05-12T22:32:29.402Z,12.60
2019-05-12T22:34:55.745Z,12.50
2019-05-12T22:37:29.356Z,12.50
2019-05-12T22:39:55.052Z,12.50
2019-05-12T22:42:24.455Z,12.40
2019-05-12T22:45:01.606Z,12.40
2019-05-12T22:47:24.438Z,12.40
2019-05-12T22:49:56.908Z,12.40
2019-05-12T22:52:24.019Z,12.30
2019-05-12T22:54:53.778Z,12.30
2019-05-12T22:57:24.157Z,12.30
2019-05-12T22:59:53.287Z,12.20
2019-05-12T23:02:25.453Z,12.20
2019-05-12T23:04:57.125Z,12.20
2019-05-12T23:07:29.742Z,12.20
2019-05-12T23:10:00.720Z,12.10
2019-05-12T23:13:05.051Z,12.10
2019-05-12T23:15:33.466Z,12.10
2019-05-12T23:18:04.211Z,12.00
2019-05-12T23:20:35.523Z,12.00
2019-05-12T23:23:04.263Z,12.00
2019-05-12T23:25:34.358Z,11.90
2019-05-12T23:28:06.813Z,11.90
2019-05-12T23:30:33.880Z,11.80
2019-05-12T23:33:03.904Z,11.80
2019-05-12T23:35:37.799Z,11.70
2019-05-12T23:38:04.507Z,11.60
2019-05-12T23:40:34.501Z,11.60
2019-05-12T23:43:04.214Z,11.60
2019-05-12T23:45:33.994Z,11.50
2019-05-12T23:48:03.897Z,11.50
2019-05-12T23:50:32.989Z,11.40
2019-05-12T23:53:03.793Z,11.40
2019-05-12T23:55:34.979Z,11.40
2019-05-12T23:58:04.436Z,11.30
